Time;durP1;ratioP1;P1;durP2;ratioP2;P2;SDS_P1;SDS_P2;PMS_P1;PMS_P2;Temp;Humidity;BMP_temperature;BMP_pressure;BME280_temperature;BME280_humidity;BME280_pressure;Samples;Min_cycle;Max_cycle;Signal;HPM_P1;HPM_P2
2021/05/20 00:01:58;;;;;;;5.38;1.10;;;20.30;58.90;;;;;;20960220;28;20025;-21
2021/05/20 00:11:59;;;;;;;4.32;1.58;;;20.20;58.40;;;;;;20981925;28;20056;-21
2021/05/20 00:22:00;;;;;;;4.20;1.20;;;20.20;58.50;;;;;;20976334;28;20032;-21
2021/05/20 00:32:01;;;;;;;3.70;1.38;;;20.20;58.60;;;;;;20997988;28;20564;-21
2021/05/20 00:42:08;;;;;;;7.90;1.95;;;20.20;58.70;;;;;;20997793;28;20050;-21
2021/05/20 00:52:09;;;;;;;6.32;1.23;;;20.10;59.00;;;;;;20990619;28;20059;-21
2021/05/20 01:02:11;;;;;;;1.10;0.47;;;20.10;59.20;;;;;;20986549;28;20045;-20
2021/05/20 01:12:12;;;;;;;3.70;0.98;;;20.10;59.20;;;;;;20987671;28;20028;-21
2021/05/20 01:22:14;;;;;;;2.10;1.13;;;20.10;59.40;;;;;;20987679;28;20025;-21
2021/05/20 01:32:14;;;;;;;6.05;1.00;;;20.00;59.50;;;;;;20992412;28;20588;-21
2021/05/20 01:42:15;;;;;;;2.10;0.98;;;20.00;59.60;;;;;;20967560;28;20032;-21
2021/05/20 01:52:15;;;;;;;1.55;1.00;;;20.00;59.60;;;;;;20982608;28;20033;-22
2021/05/20 02:02:16;;;;;;;1.40;0.90;;;20.00;59.80;;;;;;20979176;28;20029;-21
2021/05/20 02:12:16;;;;;;;3.15;0.88;;;19.90;59.60;;;;;;20968641;28;20036;-21
2021/05/20 02:22:17;;;;;;;3.22;0.90;;;19.90;59.60;;;;;;20953980;28;20035;-21
2021/05/20 02:32:18;;;;;;;1.70;1.00;;;19.90;59.50;;;;;;20953475;28;20072;-21
2021/05/20 02:42:18;;;;;;;2.10;1.10;;;19.90;59.30;;;;;;20952990;28;20048;-21
2021/05/20 02:52:19;;;;;;;4.65;1.52;;;19.90;59.60;;;;;;20961805;28;20087;-21
2021/05/20 03:02:19;;;;;;;1.17;0.90;;;19.90;59.30;;;;;;20951832;28;20029;-21
2021/05/20 03:12:20;;;;;;;2.03;0.80;;;19.80;59.30;;;;;;20954329;28;20067;-21
2021/05/20 03:22:22;;;;;;;1.98;1.27;;;19.80;59.40;;;;;;20953027;28;20028;-21
2021/05/20 03:32:22;;;;;;;1.38;0.90;;;19.80;59.30;;;;;;20942671;28;20495;-21
2021/05/20 03:42:23;;;;;;;1.48;1.10;;;19.80;59.10;;;;;;20950143;28;20044;-21
2021/05/20 03:52:23;;;;;;;1.85;0.90;;;19.70;59.10;;;;;;20960319;28;20037;-21
2021/05/20 04:02:24;;;;;;;1.73;1.00;;;19.70;58.90;;;;;;20990798;28;20039;-21
2021/05/20 04:12:24;;;;;;;1.00;0.80;;;19.70;59.00;;;;;;21000037;28;20470;-21
2021/05/20 04:22:25;;;;;;;2.03;0.90;;;19.80;57.70;;;;;;20992899;28;20406;-21
2021/05/20 04:32:25;;;;;;;1.10;0.60;;;20.40;56.50;;;;;;20980573;28;20514;-21
2021/05/20 04:42:26;;;;;;;1.42;0.60;;;21.10;54.90;;;;;;20997641;28;20103;-21
2021/05/20 04:52:27;;;;;;;1.00;0.60;;;21.50;53.60;;;;;;20988108;28;20644;-21
2021/05/20 05:02:27;;;;;;;1.42;0.80;;;21.50;53.70;;;;;;20994161;28;20521;-21
2021/05/20 05:12:28;;;;;;;1.23;0.70;;;21.40;54.00;;;;;;20956439;28;20033;-21
2021/05/20 05:22:28;;;;;;;1.02;0.63;;;21.20;54.60;;;;;;20990980;28;20056;-21
2021/05/20 05:32:29;;;;;;;10.32;1.40;;;21.00;55.00;;;;;;21001889;28;20111;-21
2021/05/20 05:42:29;;;;;;;10.60;1.80;;;21.00;55.40;;;;;;20978164;28;20032;-21
2021/05/20 05:52:30;;;;;;;16.70;2.35;;;20.80;56.10;;;;;;20991815;28;20039;-21
2021/05/20 06:02:32;;;;;;;16.90;3.50;;;20.80;56.50;;;;;;20981526;28;20517;-21
2021/05/20 06:12:33;;;;;;;14.20;3.20;;;20.60;56.90;;;;;;20972646;28;20124;-20
2021/05/20 06:22:33;;;;;;;11.37;3.30;;;20.60;56.40;;;;;;20983907;28;20056;-21
2021/05/20 06:32:36;;;;;;;12.33;2.90;;;20.50;56.60;;;;;;20988896;28;20479;-21
2021/05/20 06:42:36;;;;;;;12.70;3.13;;;20.50;56.60;;;;;;20955310;28;20463;-21
2021/05/20 06:52:37;;;;;;;16.98;2.60;;;20.40;56.70;;;;;;20963194;28;20466;-21
2021/05/20 07:02:37;;;;;;;8.20;2.90;;;20.40;57.00;;;;;;20967719;28;20029;-22
2021/05/20 07:12:38;;;;;;;12.73;2.63;;;20.40;57.40;;;;;;20959960;28;20033;-21
2021/05/20 07:22:38;;;;;;;11.53;1.73;;;20.40;57.60;;;;;;20973728;28;20098;-22
2021/05/20 07:32:39;;;;;;;6.30;2.00;;;20.20;57.80;;;;;;20998687;28;20543;-22
2021/05/20 07:42:40;;;;;;;7.30;2.33;;;20.30;57.70;;;;;;20968373;28;20387;-22
2021/05/20 07:52:41;;;;;;;7.68;2.42;;;20.20;57.60;;;;;;20962178;28;20116;-22
2021/05/20 08:12:45;;;;;;;5.80;3.40;;;20.20;57.90;;;;;;20971995;28;20037;-22
2021/05/20 08:22:45;;;;;;;6.95;2.30;;;20.20;57.60;;;;;;20916788;28;20033;-21
2021/05/20 08:32:47;;;;;;;5.70;2.10;;;20.20;58.20;;;;;;20931142;28;20662;-21
2021/05/20 08:42:48;;;;;;;3.88;1.52;;;20.10;58.30;;;;;;20951614;28;21009;-22
2021/05/20 08:52:49;;;;;;;3.53;1.83;;;20.20;58.30;;;;;;20949695;28;20439;-21
2021/05/20 09:02:51;;;;;;;3.28;1.60;;;20.10;58.20;;;;;;20961679;28;20465;-20
2021/05/20 09:13:04;;;;;;;4.32;2.08;;;20.10;58.70;;;;;;20941268;28;20044;-21
2021/05/20 09:23:11;;;;;;;2.25;1.35;;;20.10;58.10;;;;;;20962808;28;20398;-21
2021/05/20 09:33:16;;;;;;;6.97;1.50;;;20.10;58.20;;;;;;20943488;28;20422;-21
2021/05/20 09:43:24;;;;;;;2.80;1.52;;;20.10;58.10;;;;;;20929244;28;20017;-21
2021/05/20 09:53:27;;;;;;;5.67;2.70;;;20.10;57.60;;;;;;20949939;28;20032;-21
2021/05/20 10:03:29;;;;;;;5.07;1.85;;;20.10;57.70;;;;;;20942513;28;20031;-21
2021/05/20 10:13:30;;;;;;;5.18;1.63;;;20.10;57.60;;;;;;20951985;28;20037;-22
2021/05/20 10:23:30;;;;;;;3.85;1.13;;;20.10;57.70;;;;;;20950037;28;20047;-21
2021/05/20 10:33:31;;;;;;;2.60;1.30;;;20.00;57.70;;;;;;20944388;28;20044;-21
2021/05/20 10:43:32;;;;;;;1.75;1.17;;;20.10;57.80;;;;;;20948925;28;20040;-22
2021/05/20 10:53:45;;;;;;;2.55;1.38;;;20.10;58.00;;;;;;20905533;28;20084;-21
2021/05/20 11:04:03;;;;;;;1.83;1.00;;;20.10;57.80;;;;;;20990018;28;20032;-22
2021/05/20 11:14:14;;;;;;;2.58;1.50;;;20.10;57.50;;;;;;20945408;28;20024;-21
2021/05/20 11:24:17;;;;;;;4.25;1.05;;;20.10;57.30;;;;;;20959474;28;20060;-21
2021/05/20 11:44:21;;;;;;;3.03;1.40;;;20.00;57.20;;;;;;20948085;28;20150;-21
2021/05/20 11:54:24;;;;;;;2.80;1.00;;;20.00;57.00;;;;;;20986202;28;20049;-20
2021/05/20 12:04:26;;;;;;;5.22;1.88;;;20.00;56.80;;;;;;20986890;28;20032;-21
2021/05/20 12:14:31;;;;;;;2.13;0.90;;;20.00;56.40;;;;;;20985696;28;20511;-21
2021/05/20 12:24:36;;;;;;;1.67;0.70;;;20.00;56.10;;;;;;21016212;28;20028;-21
2021/05/20 12:34:37;;;;;;;1.13;0.98;;;19.90;56.40;;;;;;21001027;28;20055;-21
2021/05/20 12:44:38;;;;;;;3.20;1.00;;;20.00;56.30;;;;;;20960782;28;634839;-21
2021/05/20 12:54:38;;;;;;;2.47;1.40;;;19.90;55.30;;;;;;20992330;28;20483;-22
2021/05/20 13:04:40;;;;;;;1.33;0.93;;;19.90;55.30;;;;;;20969791;28;20495;-21
2021/05/20 13:15:06;;;;;;;2.00;0.57;;;19.90;55.20;;;;;;20966178;28;20064;-22
2021/05/20 13:25:11;;;;;;;1.95;0.75;;;19.80;54.80;;;;;;20955535;28;20037;-22
2021/05/20 13:35:13;;;;;;;1.33;0.77;;;19.90;55.40;;;;;;20944922;28;20492;-22
2021/05/20 13:45:15;;;;;;;2.45;1.20;;;19.80;55.20;;;;;;20969489;28;20056;-20
2021/05/20 13:55:18;;;;;;;1.65;0.90;;;19.90;53.60;;;;;;20974576;28;20035;-21
2021/05/20 14:05:19;;;;;;;2.58;1.30;;;19.80;54.40;;;;;;20972870;28;20027;-21
2021/05/20 14:15:20;;;;;;;1.55;0.73;;;19.80;54.30;;;;;;20962793;28;20089;-22
2021/05/20 14:25:22;;;;;;;1.77;1.02;;;19.70;53.90;;;;;;20965170;28;20093;-21
2021/05/20 14:35:23;;;;;;;2.63;0.70;;;19.70;54.00;;;;;;20969371;28;20445;-21
2021/05/20 14:45:26;;;;;;;3.83;0.70;;;19.70;53.90;;;;;;20936533;28;20055;-23
2021/05/20 14:55:43;;;;;;;1.33;0.88;;;19.70;53.80;;;;;;20953954;28;20028;-20
2021/05/20 15:06:03;;;;;;;2.22;0.95;;;19.60;53.30;;;;;;20967686;28;20116;-21
2021/05/20 15:16:04;;;;;;;1.80;0.90;;;19.70;53.10;;;;;;20963680;28;20041;-22
2021/05/20 15:26:05;;;;;;;1.67;0.93;;;19.60;52.40;;;;;;20951336;28;20464;-23
2021/05/20 15:36:06;;;;;;;3.10;1.13;;;19.60;52.70;;;;;;20976834;28;20023;-22
2021/05/20 15:46:07;;;;;;;2.40;1.40;;;19.60;52.70;;;;;;20978132;28;20060;-22
2021/05/20 15:56:08;;;;;;;4.45;1.92;;;19.90;50.50;;;;;;20995798;28;20078;-20
2021/05/20 16:06:09;;;;;;;4.03;1.77;;;20.30;48.20;;;;;;21009709;28;20037;-23
2021/05/20 16:16:09;;;;;;;3.05;2.00;;;21.10;45.80;;;;;;20972987;28;20083;-22
2021/05/20 16:46:48;;;;;;;4.95;2.35;;;22.60;41.70;;;;;;20967722;28;20033;-22
2021/05/20 16:56:52;;;;;;;5.43;2.83;;;22.40;41.90;;;;;;20979382;28;20039;-22
2021/05/20 17:06:53;;;;;;;5.57;2.38;;;22.10;42.40;;;;;;20996438;28;20027;-23
2021/05/20 17:16:53;;;;;;;7.32;2.40;;;21.80;42.80;;;;;;21006792;28;20318;-21
2021/05/20 17:26:54;;;;;;;5.45;2.58;;;21.60;43.20;;;;;;20975119;28;20421;-20
2021/05/20 17:36:54;;;;;;;5.15;2.78;;;21.40;44.20;;;;;;20942590;28;20029;-22
2021/05/20 17:46:55;;;;;;;5.05;2.72;;;21.30;44.40;;;;;;20913005;28;20021;-22
2021/05/20 17:56:56;;;;;;;6.35;2.85;;;21.30;44.80;;;;;;20911133;28;20043;-22
2021/05/20 18:06:56;;;;;;;25.58;4.25;;;21.20;45.00;;;;;;20764951;22;20404;-20
2021/05/20 18:17:05;;;;;;;12.30;4.47;;;21.20;46.70;;;;;;20739947;28;20025;-21
2021/05/20 18:27:06;;;;;;;24.05;6.07;;;21.30;47.40;;;;;;20741136;28;20412;-20
2021/05/20 18:37:08;;;;;;;24.52;4.05;;;21.30;47.80;;;;;;20742239;28;20033;-22
2021/05/20 18:47:09;;;;;;;21.23;4.55;;;21.30;47.90;;;;;;20757654;28;20438;-22
2021/05/20 18:57:09;;;;;;;14.75;3.13;;;21.20;48.60;;;;;;20741753;28;20092;-22
2021/05/20 19:17:11;;;;;;;23.95;3.47;;;21.30;50.40;;;;;;20767949;28;20055;-20
2021/05/20 19:27:11;;;;;;;14.20;3.40;;;21.30;50.50;;;;;;20744862;28;20072;-21
2021/05/20 19:37:15;;;;;;;8.02;2.83;;;21.70;50.70;;;;;;20778395;28;20037;-21
2021/05/20 19:47:16;;;;;;;12.18;3.15;;;22.40;50.00;;;;;;20774750;28;20029;-20
2021/05/20 20:17:52;;;;;;;6.07;2.55;;;23.00;49.90;;;;;;20762524;28;20045;-21
2021/05/20 20:27:56;;;;;;;6.32;2.22;;;22.70;50.80;;;;;;20751136;28;20731;-21
2021/05/20 20:41:09;;;;;;;3.58;1.75;;;22.50;51.60;;;;;;20744102;28;20034;-22
2021/05/20 20:48:17;;;;;;;12.57;3.47;;;22.20;52.20;;;;;;20747616;28;20113;-21
2021/05/20 20:58:18;;;;;;;5.18;2.53;;;22.10;52.70;;;;;;20731136;28;20029;-21
2021/05/20 21:08:18;;;;;;;7.00;2.65;;;21.90;53.00;;;;;;20744227;28;20377;-22
2021/05/20 21:18:19;;;;;;;7.60;3.50;;;21.70;53.60;;;;;;20760104;28;20041;-21
2021/05/20 21:28:20;;;;;;;6.63;2.33;;;21.50;54.10;;;;;;20748558;28;20092;-22
2021/05/20 21:38:20;;;;;;;5.05;2.63;;;21.40;54.60;;;;;;20763827;28;20464;-21
2021/05/20 21:48:21;;;;;;;6.43;3.42;;;21.30;54.00;;;;;;20755683;28;20041;-21
2021/05/20 21:58:22;;;;;;;7.43;2.97;;;21.20;53.70;;;;;;20729600;28;20661;-21
2021/05/20 22:08:23;;;;;;;7.13;3.20;;;21.10;53.90;;;;;;20744819;28;20034;-22
2021/05/20 22:18:23;;;;;;;6.15;2.55;;;21.00;54.20;;;;;;20745765;28;20029;-21
2021/05/20 22:28:31;;;;;;;6.78;2.90;;;20.90;54.40;;;;;;20745467;28;20381;-21
2021/05/20 22:38:32;;;;;;;5.77;3.13;;;20.80;55.10;;;;;;20744653;28;20053;-21
2021/05/20 22:48:32;;;;;;;6.47;3.25;;;20.80;55.30;;;;;;20742621;28;20037;-21
2021/05/20 22:58:33;;;;;;;9.43;3.23;;;20.70;55.50;;;;;;20743456;28;20488;-22
2021/05/20 23:08:34;;;;;;;4.28;2.70;;;20.60;55.70;;;;;;20742738;28;20472;-21
2021/05/20 23:18:34;;;;;;;4.60;2.42;;;20.60;55.90;;;;;;20739316;28;20061;-21
2021/05/20 23:28:35;;;;;;;5.30;3.17;;;20.60;56.00;;;;;;20737669;28;20125;-21
2021/05/20 23:38:36;;;;;;;5.05;3.10;;;20.60;56.00;;;;;;20737400;28;20480;-21
2021/05/20 23:48:37;;;;;;;4.47;2.45;;;20.50;56.20;;;;;;20737637;28;20030;-22
2021/05/20 23:58:37;;;;;;;4.07;2.85;;;20.40;56.30;;;;;;20737440;28;20258;-22
